sensor_id;sensor_type;location;lat;lon;timestamp;pressure;altitude;pressure_sealevel;temperature;humidity
62632;BME280;48703;51.248;-0.546;2023-05-08T00:02:22;101440;;;12.88;90.64
62632;BME280;48703;51.248;-0.546;2023-05-08T00:05:25;101433;;;12.87;90.52
62632;BME280;48703;51.248;-0.546;2023-05-08T00:08:26;101428;;;12.86;90.59
62632;BME280;48703;51.248;-0.546;2023-05-08T00:11:29;101418;;;12.82;90.39
62632;BME280;48703;51.248;-0.546;2023-05-08T00:14:31;101413;;;12.74;90.46
62632;BME280;48703;51.248;-0.546;2023-05-08T00:17:33;101417;;;12.66;90.77
62632;BME280;48703;51.248;-0.546;2023-05-08T00:20:35;101422;;;12.63;90.89
62632;BME280;48703;51.248;-0.546;2023-05-08T00:23:37;101420;;;12.63;90.44
62632;BME280;48703;51.248;-0.546;2023-05-08T00:26:39;101420;;;12.62;90.68
62632;BME280;48703;51.248;-0.546;2023-05-08T00:29:41;101422;;;12.59;90.89
62632;BME280;48703;51.248;-0.546;2023-05-08T00:32:43;101424;;;12.58;90.58
62632;BME280;48703;51.248;-0.546;2023-05-08T00:35:45;101424;;;12.57;91.25
62632;BME280;48703;51.248;-0.546;2023-05-08T00:38:47;101423;;;12.54;91.20
62632;BME280;48703;51.248;-0.546;2023-05-08T00:41:49;101424;;;12.55;91.16
62632;BME280;48703;51.248;-0.546;2023-05-08T00:44:51;101423;;;12.53;91.00
62632;BME280;48703;51.248;-0.546;2023-05-08T00:47:53;101420;;;12.51;90.98
62632;BME280;48703;51.248;-0.546;2023-05-08T00:50:55;101418;;;12.51;90.89
62632;BME280;48703;51.248;-0.546;2023-05-08T00:53:57;101418;;;12.50;90.60
62632;BME280;48703;51.248;-0.546;2023-05-08T00:56:59;101420;;;12.48;90.92
62632;BME280;48703;51.248;-0.546;2023-05-08T01:00:02;101418;;;12.43;91.08
62632;BME280;48703;51.248;-0.546;2023-05-08T01:03:03;101421;;;12.40;91.18
62632;BME280;48703;51.248;-0.546;2023-05-08T01:06:05;101418;;;12.35;91.26
62632;BME280;48703;51.248;-0.546;2023-05-08T01:09:07;101415;;;12.32;91.21
62632;BME280;48703;51.248;-0.546;2023-05-08T01:12:11;101412;;;12.28;91.32
62632;BME280;48703;51.248;-0.546;2023-05-08T01:15:13;101411;;;12.25;91.17
62632;BME280;48703;51.248;-0.546;2023-05-08T01:18:14;101408;;;12.22;91.36
62632;BME280;48703;51.248;-0.546;2023-05-08T01:21:16;101405;;;12.17;90.99
62632;BME280;48703;51.248;-0.546;2023-05-08T01:24:19;101403;;;12.12;91.31
62632;BME280;48703;51.248;-0.546;2023-05-08T01:26:41;101402;;;12.07;91.16
62632;BME280;48703;51.248;-0.546;2023-05-08T01:29:32;101403;;;12.04;91.11
62632;BME280;48703;51.248;-0.546;2023-05-08T01:32:22;101405;;;12.02;91.58
62632;BME280;48703;51.248;-0.546;2023-05-08T01:35:26;101405;;;12.02;91.29
62632;BME280;48703;51.248;-0.546;2023-05-08T01:38:29;101406;;;12.00;91.27
62632;BME280;48703;51.248;-0.546;2023-05-08T01:41:28;101405;;;12.00;91.64
62632;BME280;48703;51.248;-0.546;2023-05-08T01:44:32;101406;;;11.99;91.59
62632;BME280;48703;51.248;-0.546;2023-05-08T01:47:34;101410;;;11.98;91.57
62632;BME280;48703;51.248;-0.546;2023-05-08T01:50:35;101410;;;11.95;91.96
62632;BME280;48703;51.248;-0.546;2023-05-08T01:53:38;101411;;;11.94;91.64
62632;BME280;48703;51.248;-0.546;2023-05-08T01:56:39;101408;;;11.91;91.43
62632;BME280;48703;51.248;-0.546;2023-05-08T01:59:41;101406;;;11.92;91.10
62632;BME280;48703;51.248;-0.546;2023-05-08T02:02:43;101406;;;11.83;91.65
62632;BME280;48703;51.248;-0.546;2023-05-08T02:05:45;101406;;;11.75;91.34
62632;BME280;48703;51.248;-0.546;2023-05-08T02:08:47;101402;;;11.73;91.68
62632;BME280;48703;51.248;-0.546;2023-05-08T02:11:49;101403;;;11.70;91.66
62632;BME280;48703;51.248;-0.546;2023-05-08T02:14:51;101402;;;11.65;91.94
62632;BME280;48703;51.248;-0.546;2023-05-08T02:17:53;101400;;;11.60;91.64
62632;BME280;48703;51.248;-0.546;2023-05-08T02:20:55;101402;;;11.64;91.61
62632;BME280;48703;51.248;-0.546;2023-05-08T02:23:57;101403;;;11.64;91.90
62632;BME280;48703;51.248;-0.546;2023-05-08T02:26:59;101400;;;11.59;91.70
62632;BME280;48703;51.248;-0.546;2023-05-08T02:30:01;101401;;;11.58;91.57
62632;BME280;48703;51.248;-0.546;2023-05-08T02:33:03;101401;;;11.55;91.45
62632;BME280;48703;51.248;-0.546;2023-05-08T02:36:05;101400;;;11.58;91.57
62632;BME280;48703;51.248;-0.546;2023-05-08T02:39:07;101402;;;11.55;92.09
62632;BME280;48703;51.248;-0.546;2023-05-08T02:42:09;101398;;;11.52;91.80
62632;BME280;48703;51.248;-0.546;2023-05-08T02:45:11;101392;;;11.47;91.65
62632;BME280;48703;51.248;-0.546;2023-05-08T02:48:13;101389;;;11.41;92.18
62632;BME280;48703;51.248;-0.546;2023-05-08T02:51:17;101389;;;11.37;92.12
62632;BME280;48703;51.248;-0.546;2023-05-08T02:54:22;101386;;;11.34;92.33
62632;BME280;48703;51.248;-0.546;2023-05-08T02:57:20;101385;;;11.29;92.69
62632;BME280;48703;51.248;-0.546;2023-05-08T03:00:22;101383;;;11.27;92.57
62632;BME280;48703;51.248;-0.546;2023-05-08T03:03:24;101380;;;11.28;92.66
62632;BME280;48703;51.248;-0.546;2023-05-08T03:06:25;101381;;;11.29;92.41
62632;BME280;48703;51.248;-0.546;2023-05-08T03:09:37;101380;;;11.29;92.75
62632;BME280;48703;51.248;-0.546;2023-05-08T03:12:29;101381;;;11.27;92.49
62632;BME280;48703;51.248;-0.546;2023-05-08T03:15:32;101381;;;11.24;92.89
62632;BME280;48703;51.248;-0.546;2023-05-08T03:18:33;101379;;;11.20;92.83
62632;BME280;48703;51.248;-0.546;2023-05-08T03:21:35;101382;;;11.20;92.65
62632;BME280;48703;51.248;-0.546;2023-05-08T03:24:37;101383;;;11.20;92.78
62632;BME280;48703;51.248;-0.546;2023-05-08T03:27:39;101384;;;11.17;93.08
62632;BME280;48703;51.248;-0.546;2023-05-08T03:30:41;101382;;;11.15;92.80
62632;BME280;48703;51.248;-0.546;2023-05-08T03:33:43;101381;;;11.14;93.17
62632;BME280;48703;51.248;-0.546;2023-05-08T03:36:45;101379;;;11.13;92.89
62632;BME280;48703;51.248;-0.546;2023-05-08T03:39:47;101377;;;11.09;92.94
62632;BME280;48703;51.248;-0.546;2023-05-08T03:42:49;101380;;;11.08;92.67
62632;BME280;48703;51.248;-0.546;2023-05-08T03:45:51;101382;;;11.05;92.66
62632;BME280;48703;51.248;-0.546;2023-05-08T03:48:53;101380;;;11.01;92.98
62632;BME280;48703;51.248;-0.546;2023-05-08T03:51:55;101380;;;10.98;92.82
62632;BME280;48703;51.248;-0.546;2023-05-08T03:54:57;101377;;;10.93;93.01
62632;BME280;48703;51.248;-0.546;2023-05-08T03:58:00;101372;;;10.86;92.72
62632;BME280;48703;51.248;-0.546;2023-05-08T04:01:05;101372;;;10.81;92.86
62632;BME280;48703;51.248;-0.546;2023-05-08T04:04:05;101372;;;10.75;93.09
62632;BME280;48703;51.248;-0.546;2023-05-08T04:07:07;101371;;;10.72;93.49
62632;BME280;48703;51.248;-0.546;2023-05-08T04:10:08;101374;;;10.71;93.23
62632;BME280;48703;51.248;-0.546;2023-05-08T04:13:11;101370;;;10.70;93.01
62632;BME280;48703;51.248;-0.546;2023-05-08T04:16:12;101371;;;10.67;93.28
62632;BME280;48703;51.248;-0.546;2023-05-08T04:19:14;101370;;;10.66;93.55
62632;BME280;48703;51.248;-0.546;2023-05-08T04:22:15;101366;;;10.66;93.59
62632;BME280;48703;51.248;-0.546;2023-05-08T04:25:17;101360;;;10.67;93.54
62632;BME280;48703;51.248;-0.546;2023-05-08T04:28:19;101354;;;10.66;93.46
62632;BME280;48703;51.248;-0.546;2023-05-08T04:31:21;101353;;;10.65;93.69
62632;BME280;48703;51.248;-0.546;2023-05-08T04:34:23;101354;;;10.67;93.69
62632;BME280;48703;51.248;-0.546;2023-05-08T04:37:26;101355;;;10.67;93.46
62632;BME280;48703;51.248;-0.546;2023-05-08T04:40:28;101354;;;10.70;93.09
62632;BME280;48703;51.248;-0.546;2023-05-08T04:43:30;101353;;;10.70;93.09
62632;BME280;48703;51.248;-0.546;2023-05-08T04:46:32;101356;;;10.72;92.97
62632;BME280;48703;51.248;-0.546;2023-05-08T04:49:34;101353;;;10.73;92.68
62632;BME280;48703;51.248;-0.546;2023-05-08T04:52:36;101353;;;10.74;92.93
62632;BME280;48703;51.248;-0.546;2023-05-08T04:55:38;101354;;;10.77;92.47
62632;BME280;48703;51.248;-0.546;2023-05-08T04:58:40;101363;;;10.78;92.25
62632;BME280;48703;51.248;-0.546;2023-05-08T05:01:42;101364;;;10.81;92.05
62632;BME280;48703;51.248;-0.546;2023-05-08T05:04:44;101363;;;10.81;91.92
62632;BME280;48703;51.248;-0.546;2023-05-08T05:07:46;101367;;;10.81;92.06
62632;BME280;48703;51.248;-0.546;2023-05-08T05:10:48;101369;;;10.81;92.45
62632;BME280;48703;51.248;-0.546;2023-05-08T05:13:50;101371;;;10.83;92.21
62632;BME280;48703;51.248;-0.546;2023-05-08T05:16:52;101376;;;10.82;92.27
62632;BME280;48703;51.248;-0.546;2023-05-08T05:19:54;101380;;;10.84;92.51
62632;BME280;48703;51.248;-0.546;2023-05-08T05:22:56;101387;;;10.85;92.18
62632;BME280;48703;51.248;-0.546;2023-05-08T05:25:58;101390;;;10.87;92.54
62632;BME280;48703;51.248;-0.546;2023-05-08T05:29:00;101387;;;10.89;92.28
62632;BME280;48703;51.248;-0.546;2023-05-08T05:32:02;101388;;;10.91;92.55
62632;BME280;48703;51.248;-0.546;2023-05-08T05:35:04;101395;;;10.93;92.29
62632;BME280;48703;51.248;-0.546;2023-05-08T05:38:06;101399;;;10.96;92.57
62632;BME280;48703;51.248;-0.546;2023-05-08T05:41:08;101400;;;10.97;92.73
62632;BME280;48703;51.248;-0.546;2023-05-08T05:44:10;101404;;;11.02;92.58
62632;BME280;48703;51.248;-0.546;2023-05-08T05:47:12;101408;;;11.04;92.30
62632;BME280;48703;51.248;-0.546;2023-05-08T05:50:14;101417;;;11.03;92.29
62632;BME280;48703;51.248;-0.546;2023-05-08T05:53:16;101424;;;11.03;91.97
62632;BME280;48703;51.248;-0.546;2023-05-08T05:56:18;101424;;;11.03;92.35
62632;BME280;48703;51.248;-0.546;2023-05-08T05:59:20;101429;;;11.02;92.29
62632;BME280;48703;51.248;-0.546;2023-05-08T06:02:22;101428;;;11.04;92.41
62632;BME280;48703;51.248;-0.546;2023-05-08T06:05:24;101432;;;11.06;92.85
62632;BME280;48703;51.248;-0.546;2023-05-08T06:08:26;101438;;;11.07;92.35
62632;BME280;48703;51.248;-0.546;2023-05-08T06:11:28;101439;;;11.09;92.85
62632;BME280;48703;51.248;-0.546;2023-05-08T06:14:30;101438;;;11.11;92.94
62632;BME280;48703;51.248;-0.546;2023-05-08T06:17:32;101437;;;11.15;92.68
62632;BME280;48703;51.248;-0.546;2023-05-08T06:20:35;101436;;;11.19;92.82
62632;BME280;48703;51.248;-0.546;2023-05-08T06:23:36;101440;;;11.24;92.91
62632;BME280;48703;51.248;-0.546;2023-05-08T06:26:38;101443;;;11.28;92.95
62632;BME280;48703;51.248;-0.546;2023-05-08T06:29:40;101442;;;11.34;92.91
62632;BME280;48703;51.248;-0.546;2023-05-08T06:32:42;101442;;;11.39;93.01
62632;BME280;48703;51.248;-0.546;2023-05-08T06:35:45;101444;;;11.44;92.86
62632;BME280;48703;51.248;-0.546;2023-05-08T06:38:46;101445;;;11.49;92.89
62632;BME280;48703;51.248;-0.546;2023-05-08T06:41:48;101444;;;11.56;92.88
62632;BME280;48703;51.248;-0.546;2023-05-08T06:44:50;101443;;;11.64;92.40
62632;BME280;48703;51.248;-0.546;2023-05-08T06:47:52;101438;;;11.71;91.99
62632;BME280;48703;51.248;-0.546;2023-05-08T06:50:54;101436;;;11.78;91.82
62632;BME280;48703;51.248;-0.546;2023-05-08T06:53:56;101432;;;11.86;92.27
62632;BME280;48703;51.248;-0.546;2023-05-08T06:56:58;101434;;;11.94;91.93
62632;BME280;48703;51.248;-0.546;2023-05-08T07:00:00;101435;;;12.01;92.41
62632;BME280;48703;51.248;-0.546;2023-05-08T07:03:03;101433;;;12.06;92.29
62632;BME280;48703;51.248;-0.546;2023-05-08T07:06:05;101431;;;12.10;92.07
62632;BME280;48703;51.248;-0.546;2023-05-08T07:09:07;101429;;;12.14;91.79
62632;BME280;48703;51.248;-0.546;2023-05-08T07:12:08;101428;;;12.19;91.87
62632;BME280;48703;51.248;-0.546;2023-05-08T07:15:11;101428;;;12.23;91.85
62632;BME280;48703;51.248;-0.546;2023-05-08T07:18:13;101430;;;12.27;92.13
62632;BME280;48703;51.248;-0.546;2023-05-08T07:21:15;101433;;;12.31;91.63
62632;BME280;48703;51.248;-0.546;2023-05-08T07:24:17;101435;;;12.33;91.50
62632;BME280;48703;51.248;-0.546;2023-05-08T07:27:19;101435;;;12.37;91.54
62632;BME280;48703;51.248;-0.546;2023-05-08T07:30:21;101432;;;12.41;91.56
62632;BME280;48703;51.248;-0.546;2023-05-08T07:33:23;101426;;;12.45;91.25
62632;BME280;48703;51.248;-0.546;2023-05-08T07:36:25;101424;;;12.51;91.91
62632;BME280;48703;51.248;-0.546;2023-05-08T07:39:27;101425;;;12.56;91.33
62632;BME280;48703;51.248;-0.546;2023-05-08T07:42:29;101424;;;12.61;90.85
62632;BME280;48703;51.248;-0.546;2023-05-08T07:45:31;101428;;;12.63;91.35
62632;BME280;48703;51.248;-0.546;2023-05-08T07:48:33;101425;;;12.66;91.12
62632;BME280;48703;51.248;-0.546;2023-05-08T07:51:35;101422;;;12.70;90.70
62632;BME280;48703;51.248;-0.546;2023-05-08T07:54:37;101422;;;12.74;90.64
62632;BME280;48703;51.248;-0.546;2023-05-08T07:57:39;101419;;;12.74;90.17
62632;BME280;48703;51.248;-0.546;2023-05-08T08:00:41;101417;;;12.76;90.24
62632;BME280;48703;51.248;-0.546;2023-05-08T08:03:43;101415;;;12.80;90.08
62632;BME280;48703;51.248;-0.546;2023-05-08T08:06:45;101418;;;12.84;90.73
62632;BME280;48703;51.248;-0.546;2023-05-08T08:09:47;101420;;;12.89;90.31
62632;BME280;48703;51.248;-0.546;2023-05-08T08:12:49;101422;;;12.95;90.46
62632;BME280;48703;51.248;-0.546;2023-05-08T08:15:51;101423;;;13.00;90.29
62632;BME280;48703;51.248;-0.546;2023-05-08T08:18:53;101415;;;13.03;89.82
62632;BME280;48703;51.248;-0.546;2023-05-08T08:21:55;101414;;;13.08;89.56
62632;BME280;48703;51.248;-0.546;2023-05-08T08:24:57;101416;;;13.10;89.13
62632;BME280;48703;51.248;-0.546;2023-05-08T08:27:59;101413;;;13.16;89.04
62632;BME280;48703;51.248;-0.546;2023-05-08T08:31:01;101414;;;13.24;89.72
62632;BME280;48703;51.248;-0.546;2023-05-08T08:34:03;101414;;;13.31;89.10
62632;BME280;48703;51.248;-0.546;2023-05-08T08:37:05;101413;;;13.36;88.21
62632;BME280;48703;51.248;-0.546;2023-05-08T08:40:07;101414;;;13.39;88.07
62632;BME280;48703;51.248;-0.546;2023-05-08T08:43:09;101410;;;13.41;87.04
62632;BME280;48703;51.248;-0.546;2023-05-08T08:46:12;101406;;;13.43;86.77
62632;BME280;48703;51.248;-0.546;2023-05-08T08:49:13;101404;;;13.43;86.08
62632;BME280;48703;51.248;-0.546;2023-05-08T08:52:18;101406;;;13.44;86.75
62632;BME280;48703;51.248;-0.546;2023-05-08T08:55:17;101403;;;13.44;86.21
62632;BME280;48703;51.248;-0.546;2023-05-08T08:58:20;101398;;;13.46;86.21
62632;BME280;48703;51.248;-0.546;2023-05-08T09:01:21;101399;;;13.47;85.73
62632;BME280;48703;51.248;-0.546;2023-05-08T09:04:23;101398;;;13.49;85.99
62632;BME280;48703;51.248;-0.546;2023-05-08T09:07:25;101392;;;13.50;85.81
62632;BME280;48703;51.248;-0.546;2023-05-08T09:10:27;101393;;;13.50;85.90
62632;BME280;48703;51.248;-0.546;2023-05-08T09:13:29;101394;;;13.51;86.36
62632;BME280;48703;51.248;-0.546;2023-05-08T09:16:31;101397;;;13.56;86.54
62632;BME280;48703;51.248;-0.546;2023-05-08T09:19:33;101395;;;13.60;86.81
62632;BME280;48703;51.248;-0.546;2023-05-08T09:22:35;101389;;;13.65;86.64
62632;BME280;48703;51.248;-0.546;2023-05-08T09:25:41;101386;;;13.68;86.12
62632;BME280;48703;51.248;-0.546;2023-05-08T09:28:39;101386;;;13.72;86.37
62632;BME280;48703;51.248;-0.546;2023-05-08T09:31:42;101384;;;13.75;85.28
62632;BME280;48703;51.248;-0.546;2023-05-08T09:34:43;101384;;;13.78;85.71
62632;BME280;48703;51.248;-0.546;2023-05-08T09:37:45;101381;;;13.80;85.69
62632;BME280;48703;51.248;-0.546;2023-05-08T09:40:48;101380;;;13.82;85.68
62632;BME280;48703;51.248;-0.546;2023-05-08T09:43:59;101378;;;13.84;85.26
62632;BME280;48703;51.248;-0.546;2023-05-08T09:46:53;101380;;;13.88;85.31
62632;BME280;48703;51.248;-0.546;2023-05-08T09:49:55;101379;;;13.90;85.69
62632;BME280;48703;51.248;-0.546;2023-05-08T09:52:55;101376;;;13.92;85.40
62632;BME280;48703;51.248;-0.546;2023-05-08T09:55:57;101376;;;13.94;85.38
62632;BME280;48703;51.248;-0.546;2023-05-08T09:59:00;101378;;;13.95;84.80
62632;BME280;48703;51.248;-0.546;2023-05-08T10:02:08;101374;;;13.95;84.84
62632;BME280;48703;51.248;-0.546;2023-05-08T10:05:04;101368;;;14.00;85.41
62632;BME280;48703;51.248;-0.546;2023-05-08T10:08:21;101367;;;14.06;85.56
62632;BME280;48703;51.248;-0.546;2023-05-08T10:11:15;101363;;;14.14;85.62
62632;BME280;48703;51.248;-0.546;2023-05-08T10:14:10;101359;;;14.25;85.79
62632;BME280;48703;51.248;-0.546;2023-05-08T10:17:12;101352;;;14.34;85.11
62632;BME280;48703;51.248;-0.546;2023-05-08T10:20:14;101349;;;14.42;85.52
62632;BME280;48703;51.248;-0.546;2023-05-08T10:23:16;101344;;;14.54;84.85
62632;BME280;48703;51.248;-0.546;2023-05-08T10:26:21;101342;;;14.64;83.52
62632;BME280;48703;51.248;-0.546;2023-05-08T10:29:20;101342;;;14.68;82.73
62632;BME280;48703;51.248;-0.546;2023-05-08T10:32:22;101342;;;14.72;83.39
62632;BME280;48703;51.248;-0.546;2023-05-08T10:35:24;101345;;;14.77;83.07
62632;BME280;48703;51.248;-0.546;2023-05-08T10:38:26;101344;;;14.79;82.89
62632;BME280;48703;51.248;-0.546;2023-05-08T10:41:28;101340;;;14.81;82.11
62632;BME280;48703;51.248;-0.546;2023-05-08T10:44:30;101340;;;14.83;82.64
62632;BME280;48703;51.248;-0.546;2023-05-08T10:47:35;101341;;;14.85;81.87
62632;BME280;48703;51.248;-0.546;2023-05-08T10:50:37;101347;;;14.87;81.93
62632;BME280;48703;51.248;-0.546;2023-05-08T10:53:37;101348;;;14.86;81.64
62632;BME280;48703;51.248;-0.546;2023-05-08T10:56:38;101343;;;14.84;81.31
62632;BME280;48703;51.248;-0.546;2023-05-08T10:59:42;101343;;;14.83;80.32
62632;BME280;48703;51.248;-0.546;2023-05-08T11:02:42;101349;;;14.78;80.14
62632;BME280;48703;51.248;-0.546;2023-05-08T11:05:44;101353;;;14.67;80.29
62632;BME280;48703;51.248;-0.546;2023-05-08T11:08:47;101355;;;14.61;80.52
62632;BME280;48703;51.248;-0.546;2023-05-08T11:11:51;101353;;;14.56;80.80
62632;BME280;48703;51.248;-0.546;2023-05-08T11:14:55;101348;;;14.52;81.03
62632;BME280;48703;51.248;-0.546;2023-05-08T11:17:52;101345;;;14.48;81.11
62632;BME280;48703;51.248;-0.546;2023-05-08T11:20:55;101343;;;14.46;82.07
62632;BME280;48703;51.248;-0.546;2023-05-08T11:23:56;101345;;;14.42;82.67
62632;BME280;48703;51.248;-0.546;2023-05-08T11:26:58;101348;;;14.41;82.80
62632;BME280;48703;51.248;-0.546;2023-05-08T11:30:33;101351;;;14.37;82.75
62632;BME280;48703;51.248;-0.546;2023-05-08T11:33:14;101351;;;14.30;82.65
62632;BME280;48703;51.248;-0.546;2023-05-08T11:36:12;101351;;;14.27;83.77
62632;BME280;48703;51.248;-0.546;2023-05-08T11:39:07;101354;;;14.28;84.13
62632;BME280;48703;51.248;-0.546;2023-05-08T11:42:32;101356;;;14.27;83.91
62632;BME280;48703;51.248;-0.546;2023-05-08T11:45:12;101359;;;14.27;83.98
62632;BME280;48703;51.248;-0.546;2023-05-08T11:48:13;101356;;;14.28;84.08
62632;BME280;48703;51.248;-0.546;2023-05-08T11:51:16;101354;;;14.26;83.80
62632;BME280;48703;51.248;-0.546;2023-05-08T11:54:17;101354;;;14.23;83.71
62632;BME280;48703;51.248;-0.546;2023-05-08T11:57:18;101349;;;14.18;83.39
62632;BME280;48703;51.248;-0.546;2023-05-08T12:00:20;101347;;;14.11;83.09
62632;BME280;48703;51.248;-0.546;2023-05-08T12:03:23;101350;;;14.09;83.49
62632;BME280;48703;51.248;-0.546;2023-05-08T12:06:24;101345;;;14.09;83.88
62632;BME280;48703;51.248;-0.546;2023-05-08T12:09:26;101335;;;14.10;83.92
62632;BME280;48703;51.248;-0.546;2023-05-08T12:12:36;101338;;;14.12;84.17
62632;BME280;48703;51.248;-0.546;2023-05-08T12:15:31;101335;;;14.17;84.38
62632;BME280;48703;51.248;-0.546;2023-05-08T12:18:32;101342;;;14.21;84.74
62632;BME280;48703;51.248;-0.546;2023-05-08T12:21:34;101339;;;14.22;84.35
62632;BME280;48703;51.248;-0.546;2023-05-08T12:24:37;101342;;;14.25;84.11
62632;BME280;48703;51.248;-0.546;2023-05-08T12:27:38;101346;;;14.26;83.94
62632;BME280;48703;51.248;-0.546;2023-05-08T12:30:40;101336;;;14.24;84.11
62632;BME280;48703;51.248;-0.546;2023-05-08T12:33:43;101328;;;14.24;84.20
62632;BME280;48703;51.248;-0.546;2023-05-08T12:36:45;101311;;;14.25;84.22
62632;BME280;48703;51.248;-0.546;2023-05-08T12:39:47;101305;;;14.26;84.33
62632;BME280;48703;51.248;-0.546;2023-05-08T12:42:49;101301;;;14.24;84.48
62632;BME280;48703;51.248;-0.546;2023-05-08T12:45:51;101302;;;14.25;84.33
62632;BME280;48703;51.248;-0.546;2023-05-08T12:48:59;101321;;;14.29;84.96
62632;BME280;48703;51.248;-0.546;2023-05-08T12:52:03;101332;;;14.30;84.88
62632;BME280;48703;51.248;-0.546;2023-05-08T12:54:57;101324;;;14.34;84.57
62632;BME280;48703;51.248;-0.546;2023-05-08T12:57:59;101319;;;14.37;84.48
62632;BME280;48703;51.248;-0.546;2023-05-08T13:01:03;101321;;;14.33;83.86
62632;BME280;48703;51.248;-0.546;2023-05-08T13:04:05;101315;;;14.30;84.12
62632;BME280;48703;51.248;-0.546;2023-05-08T13:07:05;101310;;;14.32;84.05
62632;BME280;48703;51.248;-0.546;2023-05-08T13:10:07;101308;;;14.32;83.70
62632;BME280;48703;51.248;-0.546;2023-05-08T13:13:09;101301;;;14.32;84.17
62632;BME280;48703;51.248;-0.546;2023-05-08T13:16:11;101295;;;14.36;84.34
62632;BME280;48703;51.248;-0.546;2023-05-08T13:19:13;101285;;;14.44;84.00
62632;BME280;48703;51.248;-0.546;2023-05-08T13:22:15;101290;;;14.53;84.07
62632;BME280;48703;51.248;-0.546;2023-05-08T13:25:17;101284;;;14.62;83.55
62632;BME280;48703;51.248;-0.546;2023-05-08T13:28:19;101278;;;14.71;83.54
62632;BME280;48703;51.248;-0.546;2023-05-08T13:31:21;101272;;;14.82;83.23
62632;BME280;48703;51.248;-0.546;2023-05-08T13:34:23;101273;;;14.95;83.02
62632;BME280;48703;51.248;-0.546;2023-05-08T13:37:25;101269;;;15.06;83.04
62632;BME280;48703;51.248;-0.546;2023-05-08T13:40:27;101279;;;15.09;82.17
62632;BME280;48703;51.248;-0.546;2023-05-08T13:43:29;101280;;;15.09;82.11
62632;BME280;48703;51.248;-0.546;2023-05-08T13:46:31;101278;;;15.10;81.94
62632;BME280;48703;51.248;-0.546;2023-05-08T13:49:33;101274;;;15.05;81.48
62632;BME280;48703;51.248;-0.546;2023-05-08T13:52:35;101266;;;15.04;81.75
62632;BME280;48703;51.248;-0.546;2023-05-08T13:55:37;101262;;;15.06;81.84
62632;BME280;48703;51.248;-0.546;2023-05-08T13:58:39;101265;;;15.04;81.84
62632;BME280;48703;51.248;-0.546;2023-05-08T14:01:41;101251;;;15.00;81.74
62632;BME280;48703;51.248;-0.546;2023-05-08T14:04:43;101243;;;14.99;81.87
62632;BME280;48703;51.248;-0.546;2023-05-08T14:07:45;101244;;;14.97;81.54
62632;BME280;48703;51.248;-0.546;2023-05-08T14:10:47;101250;;;14.95;81.67
62632;BME280;48703;51.248;-0.546;2023-05-08T14:13:49;101252;;;14.94;82.10
62632;BME280;48703;51.248;-0.546;2023-05-08T14:16:51;101244;;;14.90;82.10
62632;BME280;48703;51.248;-0.546;2023-05-08T14:19:53;101246;;;14.89;82.20
62632;BME280;48703;51.248;-0.546;2023-05-08T14:22:55;101256;;;14.87;82.34
62632;BME280;48703;51.248;-0.546;2023-05-08T14:25:57;101254;;;14.85;82.25
62632;BME280;48703;51.248;-0.546;2023-05-08T14:28:59;101252;;;14.80;82.00
62632;BME280;48703;51.248;-0.546;2023-05-08T14:32:01;101249;;;14.75;82.34
62632;BME280;48703;51.248;-0.546;2023-05-08T14:35:04;101248;;;14.71;82.49
62632;BME280;48703;51.248;-0.546;2023-05-08T14:38:05;101250;;;14.66;82.73
62632;BME280;48703;51.248;-0.546;2023-05-08T14:41:07;101251;;;14.62;83.23
62632;BME280;48703;51.248;-0.546;2023-05-08T14:44:10;101244;;;14.60;83.51
62632;BME280;48703;51.248;-0.546;2023-05-08T14:47:12;101238;;;14.56;83.71
62632;BME280;48703;51.248;-0.546;2023-05-08T14:50:14;101238;;;14.52;84.12
62632;BME280;48703;51.248;-0.546;2023-05-08T14:53:16;101237;;;14.48;84.14
62632;BME280;48703;51.248;-0.546;2023-05-08T14:56:18;101235;;;14.45;84.38
62632;BME280;48703;51.248;-0.546;2023-05-08T14:59:20;101237;;;14.43;84.52
62632;BME280;48703;51.248;-0.546;2023-05-08T15:02:22;101238;;;14.40;84.48
62632;BME280;48703;51.248;-0.546;2023-05-08T15:05:24;101233;;;14.38;84.20
62632;BME280;48703;51.248;-0.546;2023-05-08T15:08:26;101228;;;14.35;84.56
62632;BME280;48703;51.248;-0.546;2023-05-08T15:11:28;101222;;;14.37;84.55
62632;BME280;48703;51.248;-0.546;2023-05-08T15:14:30;101221;;;14.36;84.93
62632;BME280;48703;51.248;-0.546;2023-05-08T15:17:32;101217;;;14.33;85.00
62632;BME280;48703;51.248;-0.546;2023-05-08T15:20:34;101218;;;14.31;85.34
62632;BME280;48703;51.248;-0.546;2023-05-08T15:23:36;101217;;;14.29;85.56
62632;BME280;48703;51.248;-0.546;2023-05-08T15:26:38;101217;;;14.27;85.52
62632;BME280;48703;51.248;-0.546;2023-05-08T15:29:40;101210;;;14.25;85.90
62632;BME280;48703;51.248;-0.546;2023-05-08T15:32:42;101206;;;14.25;85.94
62632;BME280;48703;51.248;-0.546;2023-05-08T15:35:44;101203;;;14.22;86.56
62632;BME280;48703;51.248;-0.546;2023-05-08T15:38:46;101205;;;14.19;86.23
62632;BME280;48703;51.248;-0.546;2023-05-08T15:41:48;101206;;;14.16;86.45
62632;BME280;48703;51.248;-0.546;2023-05-08T15:44:53;101206;;;14.13;86.36
62632;BME280;48703;51.248;-0.546;2023-05-08T15:47:52;101202;;;14.08;86.62
62632;BME280;48703;51.248;-0.546;2023-05-08T15:50:54;101197;;;14.05;86.90
62632;BME280;48703;51.248;-0.546;2023-05-08T15:53:56;101199;;;14.04;86.74
62632;BME280;48703;51.248;-0.546;2023-05-08T15:56:58;101196;;;14.03;87.36
62632;BME280;48703;51.248;-0.546;2023-05-08T16:00:00;101194;;;14.02;87.24
62632;BME280;48703;51.248;-0.546;2023-05-08T16:03:02;101191;;;14.01;87.67
62632;BME280;48703;51.248;-0.546;2023-05-08T16:06:04;101188;;;14.03;87.41
62632;BME280;48703;51.248;-0.546;2023-05-08T16:09:06;101186;;;14.06;87.93
62632;BME280;48703;51.248;-0.546;2023-05-08T16:12:08;101189;;;14.11;88.37
62632;BME280;48703;51.248;-0.546;2023-05-08T16:15:10;101187;;;14.12;88.00